sensor_id;sensor_type;location;lat;lon;timestamp;P1;durP1;ratioP1;P2;durP2;ratioP2
1282;SDS011;634;48.810;9.148;2022-07-19T00:00:30;3.90;;;2.50;;
1282;SDS011;634;48.810;9.148;2022-07-19T00:03:00;3.10;;;2.70;;
1282;SDS011;634;48.810;9.148;2022-07-19T00:05:30;3.73;;;2.97;;
1282;SDS011;634;48.810;9.148;2022-07-19T00:07:59;3.70;;;3.13;;
1282;SDS011;634;48.810;9.148;2022-07-19T00:10:32;4.17;;;2.70;;
1282;SDS011;634;48.810;9.148;2022-07-19T00:13:03;4.43;;;2.77;;
1282;SDS011;634;48.810;9.148;2022-07-19T00:15:33;2.80;;;2.50;;
1282;SDS011;634;48.810;9.148;2022-07-19T00:18:03;3.60;;;3.30;;
1282;SDS011;634;48.810;9.148;2022-07-19T00:20:32;3.50;;;2.63;;
1282;SDS011;634;48.810;9.148;2022-07-19T00:23:02;5.13;;;3.57;;
1282;SDS011;634;48.810;9.148;2022-07-19T00:25:34;4.63;;;3.00;;
1282;SDS011;634;48.810;9.148;2022-07-19T00:28:03;2.73;;;2.53;;
1282;SDS011;634;48.810;9.148;2022-07-19T00:30:33;4.20;;;2.67;;
1282;SDS011;634;48.810;9.148;2022-07-19T00:33:03;3.03;;;2.37;;
1282;SDS011;634;48.810;9.148;2022-07-19T00:35:34;3.40;;;3.10;;
1282;SDS011;634;48.810;9.148;2022-07-19T00:38:04;5.50;;;3.20;;
1282;SDS011;634;48.810;9.148;2022-07-19T00:40:37;4.80;;;3.10;;
1282;SDS011;634;48.810;9.148;2022-07-19T00:43:08;3.73;;;3.27;;
1282;SDS011;634;48.810;9.148;2022-07-19T00:45:37;3.10;;;2.80;;
1282;SDS011;634;48.810;9.148;2022-07-19T00:48:07;4.00;;;3.10;;
1282;SDS011;634;48.810;9.148;2022-07-19T00:50:36;4.13;;;2.83;;
1282;SDS011;634;48.810;9.148;2022-07-19T00:53:06;2.80;;;2.40;;
1282;SDS011;634;48.810;9.148;2022-07-19T00:55:38;4.50;;;3.30;;
1282;SDS011;634;48.810;9.148;2022-07-19T00:58:09;6.60;;;3.00;;
1282;SDS011;634;48.810;9.148;2022-07-19T01:00:40;3.50;;;2.60;;
1282;SDS011;634;48.810;9.148;2022-07-19T01:03:13;3.90;;;2.87;;
1282;SDS011;634;48.810;9.148;2022-07-19T01:05:43;2.93;;;2.53;;
1282;SDS011;634;48.810;9.148;2022-07-19T01:08:14;3.37;;;2.90;;
1282;SDS011;634;48.810;9.148;2022-07-19T01:10:47;4.50;;;3.03;;
1282;SDS011;634;48.810;9.148;2022-07-19T01:13:16;3.50;;;3.20;;
1282;SDS011;634;48.810;9.148;2022-07-19T01:15:46;3.87;;;3.20;;
1282;SDS011;634;48.810;9.148;2022-07-19T01:18:15;3.20;;;2.83;;
1282;SDS011;634;48.810;9.148;2022-07-19T01:20:45;7.83;;;3.10;;
1282;SDS011;634;48.810;9.148;2022-07-19T01:23:19;3.77;;;3.47;;
1282;SDS011;634;48.810;9.148;2022-07-19T01:25:49;3.73;;;3.10;;
1282;SDS011;634;48.810;9.148;2022-07-19T01:28:19;7.80;;;3.10;;
1282;SDS011;634;48.810;9.148;2022-07-19T01:30:48;4.23;;;3.13;;
1282;SDS011;634;48.810;9.148;2022-07-19T01:33:18;5.40;;;3.47;;
1282;SDS011;634;48.810;9.148;2022-07-19T01:35:47;3.37;;;3.07;;
1282;SDS011;634;48.810;9.148;2022-07-19T01:38:19;5.83;;;2.87;;
1282;SDS011;634;48.810;9.148;2022-07-19T01:40:49;3.50;;;2.70;;
1282;SDS011;634;48.810;9.148;2022-07-19T01:43:18;4.03;;;2.77;;
1282;SDS011;634;48.810;9.148;2022-07-19T01:45:48;4.17;;;3.30;;
1282;SDS011;634;48.810;9.148;2022-07-19T01:48:19;4.50;;;3.17;;
1282;SDS011;634;48.810;9.148;2022-07-19T01:50:51;3.40;;;3.10;;
1282;SDS011;634;48.810;9.148;2022-07-19T01:53:23;4.40;;;3.17;;
1282;SDS011;634;48.810;9.148;2022-07-19T01:55:55;4.13;;;2.97;;
1282;SDS011;634;48.810;9.148;2022-07-19T01:58:27;4.37;;;2.80;;
1282;SDS011;634;48.810;9.148;2022-07-19T02:01:00;3.63;;;3.00;;
1282;SDS011;634;48.810;9.148;2022-07-19T02:03:32;6.83;;;3.00;;
1282;SDS011;634;48.810;9.148;2022-07-19T02:06:02;2.90;;;2.60;;
1282;SDS011;634;48.810;9.148;2022-07-19T02:08:34;3.03;;;2.60;;
1282;SDS011;634;48.810;9.148;2022-07-19T02:11:04;3.13;;;2.73;;
1282;SDS011;634;48.810;9.148;2022-07-19T02:13:46;3.97;;;3.10;;
1282;SDS011;634;48.810;9.148;2022-07-19T02:16:16;3.37;;;3.07;;
1282;SDS011;634;48.810;9.148;2022-07-19T02:18:47;3.77;;;2.80;;
1282;SDS011;634;48.810;9.148;2022-07-19T02:21:17;3.67;;;2.80;;
1282;SDS011;634;48.810;9.148;2022-07-19T02:23:49;4.07;;;2.87;;
1282;SDS011;634;48.810;9.148;2022-07-19T02:26:19;4.67;;;2.60;;
1282;SDS011;634;48.810;9.148;2022-07-19T02:28:51;3.30;;;2.83;;
1282;SDS011;634;48.810;9.148;2022-07-19T02:31:20;4.13;;;2.90;;
1282;SDS011;634;48.810;9.148;2022-07-19T02:33:51;3.10;;;2.43;;
1282;SDS011;634;48.810;9.148;2022-07-19T02:36:23;3.20;;;2.70;;
1282;SDS011;634;48.810;9.148;2022-07-19T02:38:55;3.70;;;2.53;;
1282;SDS011;634;48.810;9.148;2022-07-19T02:41:25;3.60;;;2.87;;
1282;SDS011;634;48.810;9.148;2022-07-19T02:43:54;5.10;;;2.70;;
1282;SDS011;634;48.810;9.148;2022-07-19T02:46:24;4.70;;;3.00;;
1282;SDS011;634;48.810;9.148;2022-07-19T02:48:53;3.20;;;2.83;;
1282;SDS011;634;48.810;9.148;2022-07-19T02:51:26;4.60;;;2.67;;
1282;SDS011;634;48.810;9.148;2022-07-19T02:53:58;3.27;;;2.97;;
1282;SDS011;634;48.810;9.148;2022-07-19T02:56:27;3.43;;;2.63;;
1282;SDS011;634;48.810;9.148;2022-07-19T02:58:57;4.83;;;2.87;;
1282;SDS011;634;48.810;9.148;2022-07-19T03:01:26;3.97;;;3.13;;
1282;SDS011;634;48.810;9.148;2022-07-19T03:03:56;4.53;;;2.73;;
1282;SDS011;634;48.810;9.148;2022-07-19T03:06:26;4.83;;;2.40;;
1282;SDS011;634;48.810;9.148;2022-07-19T03:08:58;6.40;;;2.80;;
1282;SDS011;634;48.810;9.148;2022-07-19T03:11:27;3.50;;;2.40;;
1282;SDS011;634;48.810;9.148;2022-07-19T03:13:57;3.17;;;2.70;;
1282;SDS011;634;48.810;9.148;2022-07-19T03:16:26;3.40;;;3.10;;
1282;SDS011;634;48.810;9.148;2022-07-19T03:18:56;4.20;;;2.53;;
1282;SDS011;634;48.810;9.148;2022-07-19T03:21:25;4.27;;;2.47;;
1282;SDS011;634;48.810;9.148;2022-07-19T03:23:59;3.50;;;2.73;;
1282;SDS011;634;48.810;9.148;2022-07-19T03:26:29;4.23;;;2.60;;
1282;SDS011;634;48.810;9.148;2022-07-19T03:28:58;3.80;;;2.50;;
1282;SDS011;634;48.810;9.148;2022-07-19T03:31:28;2.93;;;2.60;;
1282;SDS011;634;48.810;9.148;2022-07-19T03:34:00;3.07;;;2.77;;
1282;SDS011;634;48.810;9.148;2022-07-19T03:36:30;2.70;;;2.50;;
1282;SDS011;634;48.810;9.148;2022-07-19T03:39:02;2.97;;;2.57;;
1282;SDS011;634;48.810;9.148;2022-07-19T03:41:34;4.33;;;2.83;;
1282;SDS011;634;48.810;9.148;2022-07-19T03:44:04;3.20;;;2.70;;
1282;SDS011;634;48.810;9.148;2022-07-19T03:46:36;3.03;;;2.63;;
1282;SDS011;634;48.810;9.148;2022-07-19T03:49:06;5.10;;;3.17;;
1282;SDS011;634;48.810;9.148;2022-07-19T03:51:35;5.23;;;3.00;;
1282;SDS011;634;48.810;9.148;2022-07-19T03:54:08;4.70;;;2.50;;
1282;SDS011;634;48.810;9.148;2022-07-19T03:56:37;3.40;;;2.70;;
1282;SDS011;634;48.810;9.148;2022-07-19T03:59:06;5.90;;;3.27;;
1282;SDS011;634;48.810;9.148;2022-07-19T04:01:36;3.10;;;2.60;;
1282;SDS011;634;48.810;9.148;2022-07-19T04:04:06;3.30;;;3.00;;
1282;SDS011;634;48.810;9.148;2022-07-19T04:06:36;3.67;;;2.90;;
1282;SDS011;634;48.810;9.148;2022-07-19T04:09:08;3.83;;;2.83;;
1282;SDS011;634;48.810;9.148;2022-07-19T04:11:37;3.03;;;2.40;;
1282;SDS011;634;48.810;9.148;2022-07-19T04:14:07;4.87;;;3.10;;
1282;SDS011;634;48.810;9.148;2022-07-19T04:16:39;3.70;;;3.03;;
1282;SDS011;634;48.810;9.148;2022-07-19T04:19:08;4.03;;;3.20;;
1282;SDS011;634;48.810;9.148;2022-07-19T04:21:38;3.10;;;2.77;;
1282;SDS011;634;48.810;9.148;2022-07-19T04:24:12;4.93;;;3.33;;
1282;SDS011;634;48.810;9.148;2022-07-19T04:26:41;5.53;;;3.60;;
1282;SDS011;634;48.810;9.148;2022-07-19T04:29:11;7.70;;;2.90;;
1282;SDS011;634;48.810;9.148;2022-07-19T04:31:43;4.37;;;2.83;;
1282;SDS011;634;48.810;9.148;2022-07-19T04:34:12;4.67;;;2.83;;
1282;SDS011;634;48.810;9.148;2022-07-19T04:36:42;4.07;;;3.07;;
1282;SDS011;634;48.810;9.148;2022-07-19T04:39:16;3.07;;;2.80;;
1282;SDS011;634;48.810;9.148;2022-07-19T04:41:46;3.63;;;2.40;;
1282;SDS011;634;48.810;9.148;2022-07-19T04:44:15;4.53;;;2.93;;
1282;SDS011;634;48.810;9.148;2022-07-19T04:46:45;5.27;;;2.70;;
1282;SDS011;634;48.810;9.148;2022-07-19T04:49:14;4.53;;;2.67;;
1282;SDS011;634;48.810;9.148;2022-07-19T04:51:44;3.47;;;3.00;;
1282;SDS011;634;48.810;9.148;2022-07-19T04:54:16;4.23;;;3.00;;
1282;SDS011;634;48.810;9.148;2022-07-19T04:56:48;3.73;;;2.93;;
1282;SDS011;634;48.810;9.148;2022-07-19T04:59:17;3.97;;;3.13;;
1282;SDS011;634;48.810;9.148;2022-07-19T05:01:47;6.50;;;2.50;;
1282;SDS011;634;48.810;9.148;2022-07-19T05:04:16;3.20;;;2.90;;
1282;SDS011;634;48.810;9.148;2022-07-19T05:06:46;2.90;;;2.60;;
1282;SDS011;634;48.810;9.148;2022-07-19T05:09:20;4.10;;;3.03;;
1282;SDS011;634;48.810;9.148;2022-07-19T05:11:49;3.80;;;3.37;;
1282;SDS011;634;48.810;9.148;2022-07-19T05:14:19;2.80;;;2.60;;
1282;SDS011;634;48.810;9.148;2022-07-19T05:16:49;4.93;;;2.80;;
1282;SDS011;634;48.810;9.148;2022-07-19T05:19:18;5.20;;;2.97;;
1282;SDS011;634;48.810;9.148;2022-07-19T05:21:48;3.93;;;3.07;;
1282;SDS011;634;48.810;9.148;2022-07-19T05:24:23;4.50;;;2.97;;
1282;SDS011;634;48.810;9.148;2022-07-19T05:26:54;4.43;;;3.03;;
1282;SDS011;634;48.810;9.148;2022-07-19T05:29:24;3.53;;;3.20;;
1282;SDS011;634;48.810;9.148;2022-07-19T05:31:56;2.97;;;2.70;;
1282;SDS011;634;48.810;9.148;2022-07-19T05:34:25;4.47;;;3.20;;
1282;SDS011;634;48.810;9.148;2022-07-19T05:36:55;3.60;;;3.30;;
1282;SDS011;634;48.810;9.148;2022-07-19T05:39:27;4.97;;;3.40;;
1282;SDS011;634;48.810;9.148;2022-07-19T05:41:56;5.10;;;3.40;;
1282;SDS011;634;48.810;9.148;2022-07-19T05:44:26;3.70;;;3.07;;
1282;SDS011;634;48.810;9.148;2022-07-19T05:46:55;5.07;;;3.53;;
1282;SDS011;634;48.810;9.148;2022-07-19T05:49:25;6.57;;;3.37;;
1282;SDS011;634;48.810;9.148;2022-07-19T05:51:54;6.63;;;3.60;;
1282;SDS011;634;48.810;9.148;2022-07-19T05:54:24;5.63;;;3.57;;
1282;SDS011;634;48.810;9.148;2022-07-19T05:56:56;3.97;;;3.57;;
1282;SDS011;634;48.810;9.148;2022-07-19T05:59:25;5.47;;;4.20;;
1282;SDS011;634;48.810;9.148;2022-07-19T06:01:54;6.37;;;3.90;;
1282;SDS011;634;48.810;9.148;2022-07-19T06:04:24;6.17;;;3.73;;
1282;SDS011;634;48.810;9.148;2022-07-19T06:06:53;4.40;;;3.40;;
1282;SDS011;634;48.810;9.148;2022-07-19T06:09:23;5.47;;;4.43;;
1282;SDS011;634;48.810;9.148;2022-07-19T06:11:55;5.53;;;3.53;;
1282;SDS011;634;48.810;9.148;2022-07-19T06:14:24;5.53;;;4.37;;
1282;SDS011;634;48.810;9.148;2022-07-19T06:16:56;5.47;;;4.80;;
1282;SDS011;634;48.810;9.148;2022-07-19T06:19:26;4.70;;;4.00;;
1282;SDS011;634;48.810;9.148;2022-07-19T06:21:55;5.13;;;4.10;;
1282;SDS011;634;48.810;9.148;2022-07-19T06:24:24;6.87;;;3.37;;
1282;SDS011;634;48.810;9.148;2022-07-19T06:26:56;7.50;;;5.00;;
1282;SDS011;634;48.810;9.148;2022-07-19T06:29:26;6.17;;;3.77;;
1282;SDS011;634;48.810;9.148;2022-07-19T06:31:58;6.13;;;3.83;;
1282;SDS011;634;48.810;9.148;2022-07-19T06:34:27;4.10;;;3.70;;
1282;SDS011;634;48.810;9.148;2022-07-19T06:36:59;3.10;;;2.80;;
1282;SDS011;634;48.810;9.148;2022-07-19T06:39:28;4.33;;;3.50;;
1282;SDS011;634;48.810;9.148;2022-07-19T06:42:03;4.17;;;3.77;;
1282;SDS011;634;48.810;9.148;2022-07-19T06:44:34;4.37;;;3.93;;
1282;SDS011;634;48.810;9.148;2022-07-19T06:47:06;6.43;;;4.00;;
1282;SDS011;634;48.810;9.148;2022-07-19T06:49:35;5.43;;;3.73;;
1282;SDS011;634;48.810;9.148;2022-07-19T06:52:05;7.03;;;3.23;;
1282;SDS011;634;48.810;9.148;2022-07-19T06:54:34;4.33;;;3.50;;
1282;SDS011;634;48.810;9.148;2022-07-19T06:57:06;7.23;;;3.50;;
1282;SDS011;634;48.810;9.148;2022-07-19T06:59:36;6.20;;;4.53;;
1282;SDS011;634;48.810;9.148;2022-07-19T07:02:05;4.10;;;3.60;;
1282;SDS011;634;48.810;9.148;2022-07-19T07:04:37;3.90;;;3.43;;
1282;SDS011;634;48.810;9.148;2022-07-19T07:07:07;5.60;;;4.60;;
1282;SDS011;634;48.810;9.148;2022-07-19T07:09:36;6.37;;;3.90;;
1282;SDS011;634;48.810;9.148;2022-07-19T07:12:08;6.47;;;4.33;;
1282;SDS011;634;48.810;9.148;2022-07-19T07:14:38;8.60;;;5.73;;
1282;SDS011;634;48.810;9.148;2022-07-19T07:17:07;7.47;;;5.67;;
1282;SDS011;634;48.810;9.148;2022-07-19T07:19:39;7.80;;;4.90;;
1282;SDS011;634;48.810;9.148;2022-07-19T07:22:08;9.07;;;5.27;;
1282;SDS011;634;48.810;9.148;2022-07-19T07:24:38;6.80;;;5.37;;
1282;SDS011;634;48.810;9.148;2022-07-19T07:27:10;8.40;;;5.93;;
1282;SDS011;634;48.810;9.148;2022-07-19T07:29:40;10.73;;;6.20;;
1282;SDS011;634;48.810;9.148;2022-07-19T07:32:09;9.20;;;5.40;;
1282;SDS011;634;48.810;9.148;2022-07-19T07:34:39;7.53;;;5.20;;
1282;SDS011;634;48.810;9.148;2022-07-19T07:37:10;7.10;;;4.57;;
1282;SDS011;634;48.810;9.148;2022-07-19T07:39:40;8.63;;;4.73;;
1282;SDS011;634;48.810;9.148;2022-07-19T07:42:12;10.27;;;4.97;;
1282;SDS011;634;48.810;9.148;2022-07-19T07:44:42;3.83;;;2.70;;
1282;SDS011;634;48.810;9.148;2022-07-19T07:47:11;2.70;;;2.20;;
1282;SDS011;634;48.810;9.148;2022-07-19T07:49:41;2.43;;;1.97;;
1282;SDS011;634;48.810;9.148;2022-07-19T07:52:10;2.73;;;2.40;;
1282;SDS011;634;48.810;9.148;2022-07-19T07:54:39;3.40;;;2.00;;
1282;SDS011;634;48.810;9.148;2022-07-19T07:57:11;10.23;;;2.80;;
1282;SDS011;634;48.810;9.148;2022-07-19T07:59:41;7.00;;;3.40;;
1282;SDS011;634;48.810;9.148;2022-07-19T08:02:10;10.03;;;3.67;;
1282;SDS011;634;48.810;9.148;2022-07-19T08:04:40;4.40;;;2.17;;
1282;SDS011;634;48.810;9.148;2022-07-19T08:07:09;2.57;;;2.20;;
1282;SDS011;634;48.810;9.148;2022-07-19T08:09:39;3.60;;;2.17;;
1282;SDS011;634;48.810;9.148;2022-07-19T08:12:08;5.17;;;2.47;;
1282;SDS011;634;48.810;9.148;2022-07-19T08:14:40;2.43;;;1.80;;
1282;SDS011;634;48.810;9.148;2022-07-19T08:17:10;2.30;;;2.10;;
1282;SDS011;634;48.810;9.148;2022-07-19T08:19:39;2.20;;;2.00;;
1282;SDS011;634;48.810;9.148;2022-07-19T08:22:09;3.23;;;2.10;;
1282;SDS011;634;48.810;9.148;2022-07-19T08:24:41;7.63;;;2.00;;
1282;SDS011;634;48.810;9.148;2022-07-19T08:27:13;5.60;;;2.10;;
1282;SDS011;634;48.810;9.148;2022-07-19T08:29:43;2.07;;;1.97;;
1282;SDS011;634;48.810;9.148;2022-07-19T08:32:12;5.67;;;2.10;;
1282;SDS011;634;48.810;9.148;2022-07-19T08:34:42;2.60;;;1.97;;
1282;SDS011;634;48.810;9.148;2022-07-19T08:37:11;6.40;;;2.50;;
1282;SDS011;634;48.810;9.148;2022-07-19T08:39:41;2.37;;;2.13;;
1282;SDS011;634;48.810;9.148;2022-07-19T08:42:16;2.00;;;1.80;;
1282;SDS011;634;48.810;9.148;2022-07-19T08:44:47;2.53;;;2.10;;
1282;SDS011;634;48.810;9.148;2022-07-19T08:47:22;2.33;;;2.10;;
1282;SDS011;634;48.810;9.148;2022-07-19T08:49:54;2.40;;;2.10;;
1282;SDS011;634;48.810;9.148;2022-07-19T08:52:26;2.53;;;2.30;;
1282;SDS011;634;48.810;9.148;2022-07-19T08:54:56;3.43;;;2.60;;
1282;SDS011;634;48.810;9.148;2022-07-19T08:57:28;2.90;;;2.10;;
1282;SDS011;634;48.810;9.148;2022-07-19T09:00:13;2.57;;;1.77;;
1282;SDS011;634;48.810;9.148;2022-07-19T09:02:52;5.70;;;2.37;;
1282;SDS011;634;48.810;9.148;2022-07-19T09:05:25;2.50;;;1.70;;
1282;SDS011;634;48.810;9.148;2022-07-19T09:08:00;2.33;;;2.00;;
1282;SDS011;634;48.810;9.148;2022-07-19T09:10:35;1.90;;;1.80;;
1282;SDS011;634;48.810;9.148;2022-07-19T09:13:09;2.90;;;2.20;;
1282;SDS011;634;48.810;9.148;2022-07-19T09:15:44;5.60;;;1.90;;
1282;SDS011;634;48.810;9.148;2022-07-19T09:18:16;2.70;;;1.90;;
1282;SDS011;634;48.810;9.148;2022-07-19T09:20:48;2.67;;;2.47;;
1282;SDS011;634;48.810;9.148;2022-07-19T09:23:19;5.10;;;2.47;;
1282;SDS011;634;48.810;9.148;2022-07-19T09:25:51;3.77;;;2.17;;
1282;SDS011;634;48.810;9.148;2022-07-19T09:28:25;2.13;;;1.90;;
1282;SDS011;634;48.810;9.148;2022-07-19T09:30:57;5.50;;;1.97;;
1282;SDS011;634;48.810;9.148;2022-07-19T09:33:29;3.43;;;2.10;;
1282;SDS011;634;48.810;9.148;2022-07-19T09:36:00;2.60;;;1.87;;
1282;SDS011;634;48.810;9.148;2022-07-19T09:38:32;2.10;;;1.90;;
1282;SDS011;634;48.810;9.148;2022-07-19T09:41:09;3.40;;;1.90;;
1282;SDS011;634;48.810;9.148;2022-07-19T09:43:50;4.63;;;2.50;;
1282;SDS011;634;48.810;9.148;2022-07-19T09:46:30;4.57;;;2.47;;
1282;SDS011;634;48.810;9.148;2022-07-19T09:49:03;3.07;;;2.40;;
1282;SDS011;634;48.810;9.148;2022-07-19T09:51:37;2.90;;;2.57;;
1282;SDS011;634;48.810;9.148;2022-07-19T09:54:11;3.70;;;2.73;;
1282;SDS011;634;48.810;9.148;2022-07-19T09:56:43;2.60;;;2.30;;
1282;SDS011;634;48.810;9.148;2022-07-19T09:59:17;3.50;;;2.43;;
1282;SDS011;634;48.810;9.148;2022-07-19T10:01:47;4.23;;;2.50;;
1282;SDS011;634;48.810;9.148;2022-07-19T10:04:20;4.90;;;2.47;;
1282;SDS011;634;48.810;9.148;2022-07-19T10:06:50;3.20;;;2.63;;
1282;SDS011;634;48.810;9.148;2022-07-19T10:09:20;3.53;;;2.80;;
1282;SDS011;634;48.810;9.148;2022-07-19T10:11:51;2.80;;;2.30;;
1282;SDS011;634;48.810;9.148;2022-07-19T10:14:24;5.37;;;3.03;;
1282;SDS011;634;48.810;9.148;2022-07-19T10:17:00;4.87;;;2.87;;
1282;SDS011;634;48.810;9.148;2022-07-19T10:19:37;5.73;;;2.93;;
1282;SDS011;634;48.810;9.148;2022-07-19T10:22:09;3.03;;;2.40;;
1282;SDS011;634;48.810;9.148;2022-07-19T10:24:44;4.80;;;3.40;;
1282;SDS011;634;48.810;9.148;2022-07-19T10:27:18;4.10;;;2.90;;
1282;SDS011;634;48.810;9.148;2022-07-19T10:30:20;3.53;;;3.13;;
1282;SDS011;634;48.810;9.148;2022-07-19T10:32:53;3.90;;;2.50;;
1282;SDS011;634;48.810;9.148;2022-07-19T10:35:27;4.30;;;2.67;;
1282;SDS011;634;48.810;9.148;2022-07-19T10:38:08;2.43;;;2.23;;
1282;SDS011;634;48.810;9.148;2022-07-19T10:40:42;3.30;;;3.00;;
1282;SDS011;634;48.810;9.148;2022-07-19T10:43:13;3.00;;;2.70;;
1282;SDS011;634;48.810;9.148;2022-07-19T10:48:41;3.63;;;3.27;;
1282;SDS011;634;48.810;9.148;2022-07-19T10:51:26;4.23;;;2.67;;
1282;SDS011;634;48.810;9.148;2022-07-19T10:54:00;4.90;;;2.80;;
1282;SDS011;634;48.810;9.148;2022-07-19T10:59:33;3.33;;;2.57;;
1282;SDS011;634;48.810;9.148;2022-07-19T11:05:01;2.77;;;2.57;;
1282;SDS011;634;48.810;9.148;2022-07-19T11:07:32;3.10;;;2.40;;
1282;SDS011;634;48.810;9.148;2022-07-19T11:10:02;4.80;;;2.70;;
1282;SDS011;634;48.810;9.148;2022-07-19T11:12:34;3.23;;;2.30;;
1282;SDS011;634;48.810;9.148;2022-07-19T11:15:07;3.20;;;2.67;;
1282;SDS011;634;48.810;9.148;2022-07-19T11:17:43;4.23;;;3.13;;
1282;SDS011;634;48.810;9.148;2022-07-19T11:20:21;4.07;;;2.73;;
1282;SDS011;634;48.810;9.148;2022-07-19T11:22:54;2.60;;;2.40;;
1282;SDS011;634;48.810;9.148;2022-07-19T11:25:25;2.33;;;2.10;;
1282;SDS011;634;48.810;9.148;2022-07-19T11:27:57;3.50;;;2.47;;
1282;SDS011;634;48.810;9.148;2022-07-19T11:30:28;3.20;;;2.63;;
1282;SDS011;634;48.810;9.148;2022-07-19T11:33:05;2.63;;;2.43;;
1282;SDS011;634;48.810;9.148;2022-07-19T11:35:37;3.33;;;2.40;;
1282;SDS011;634;48.810;9.148;2022-07-19T11:38:06;3.37;;;2.40;;
1282;SDS011;634;48.810;9.148;2022-07-19T11:40:38;3.63;;;2.30;;
1282;SDS011;634;48.810;9.148;2022-07-19T11:43:07;3.10;;;2.60;;
1282;SDS011;634;48.810;9.148;2022-07-19T11:45:43;2.90;;;2.23;;
1282;SDS011;634;48.810;9.148;2022-07-19T11:48:27;2.90;;;2.40;;
1282;SDS011;634;48.810;9.148;2022-07-19T11:50:58;3.60;;;2.93;;
1282;SDS011;634;48.810;9.148;2022-07-19T11:53:29;4.00;;;2.70;;
1282;SDS011;634;48.810;9.148;2022-07-19T11:55:58;4.80;;;2.93;;
1282;SDS011;634;48.810;9.148;2022-07-19T11:58:28;2.70;;;2.10;;
1282;SDS011;634;48.810;9.148;2022-07-19T12:01:02;4.40;;;2.90;;
1282;SDS011;634;48.810;9.148;2022-07-19T12:03:35;3.67;;;2.93;;
1282;SDS011;634;48.810;9.148;2022-07-19T12:06:05;3.50;;;2.80;;
1282;SDS011;634;48.810;9.148;2022-07-19T12:08:40;3.13;;;2.50;;
1282;SDS011;634;48.810;9.148;2022-07-19T12:11:20;4.27;;;2.33;;
1282;SDS011;634;48.810;9.148;2022-07-19T12:13:53;4.77;;;2.33;;
1282;SDS011;634;48.810;9.148;2022-07-19T12:16:26;4.20;;;2.60;;
1282;SDS011;634;48.810;9.148;2022-07-19T12:19:09;4.00;;;2.83;;
1282;SDS011;634;48.810;9.148;2022-07-19T12:21:40;5.00;;;3.03;;
1282;SDS011;634;48.810;9.148;2022-07-19T12:24:17;3.10;;;2.40;;
1282;SDS011;634;48.810;9.148;2022-07-19T12:26:55;3.40;;;2.70;;
1282;SDS011;634;48.810;9.148;2022-07-19T12:29:33;6.00;;;2.57;;
1282;SDS011;634;48.810;9.148;2022-07-19T12:32:08;5.57;;;3.20;;
1282;SDS011;634;48.810;9.148;2022-07-19T12:34:45;5.17;;;2.50;;
1282;SDS011;634;48.810;9.148;2022-07-19T12:37:19;3.37;;;2.87;;
1282;SDS011;634;48.810;9.148;2022-07-19T12:39:56;3.30;;;2.90;;
1282;SDS011;634;48.810;9.148;2022-07-19T12:42:39;5.93;;;3.30;;
1282;SDS011;634;48.810;9.148;2022-07-19T12:45:11;4.47;;;2.30;;
1282;SDS011;634;48.810;9.148;2022-07-19T12:47:45;5.63;;;2.70;;
1282;SDS011;634;48.810;9.148;2022-07-19T12:50:22;3.40;;;2.50;;
1282;SDS011;634;48.810;9.148;2022-07-19T12:52:54;3.00;;;2.70;;
1282;SDS011;634;48.810;9.148;2022-07-19T12:55:25;3.77;;;2.73;;
1282;SDS011;634;48.810;9.148;2022-07-19T12:57:56;5.03;;;2.83;;
1282;SDS011;634;48.810;9.148;2022-07-19T13:00:30;3.87;;;3.20;;
1282;SDS011;634;48.810;9.148;2022-07-19T13:03:00;3.77;;;3.00;;
1282;SDS011;634;48.810;9.148;2022-07-19T13:05:36;3.23;;;2.60;;
1282;SDS011;634;48.810;9.148;2022-07-19T13:08:05;4.60;;;2.77;;
1282;SDS011;634;48.810;9.148;2022-07-19T13:10:37;4.50;;;3.20;;
1282;SDS011;634;48.810;9.148;2022-07-19T13:13:09;4.30;;;2.90;;
1282;SDS011;634;48.810;9.148;2022-07-19T13:15:38;5.60;;;3.30;;
1282;SDS011;634;48.810;9.148;2022-07-19T13:18:08;3.93;;;3.27;;
1282;SDS011;634;48.810;9.148;2022-07-19T13:20:40;4.33;;;3.07;;
1282;SDS011;634;48.810;9.148;2022-07-19T13:23:10;3.80;;;2.47;;
1282;SDS011;634;48.810;9.148;2022-07-19T13:25:40;4.10;;;2.87;;
1282;SDS011;634;48.810;9.148;2022-07-19T13:28:09;3.10;;;2.70;;
1282;SDS011;634;48.810;9.148;2022-07-19T13:30:43;4.77;;;2.90;;
1282;SDS011;634;48.810;9.148;2022-07-19T13:33:13;3.77;;;2.87;;
1282;SDS011;634;48.810;9.148;2022-07-19T13:35:45;4.40;;;3.17;;
1282;SDS011;634;48.810;9.148;2022-07-19T13:38:17;7.10;;;3.00;;
1282;SDS011;634;48.810;9.148;2022-07-19T13:40:49;4.50;;;2.50;;
1282;SDS011;634;48.810;9.148;2022-07-19T13:43:19;4.37;;;3.00;;
1282;SDS011;634;48.810;9.148;2022-07-19T13:45:48;6.73;;;2.40;;
1282;SDS011;634;48.810;9.148;2022-07-19T13:48:18;2.97;;;2.73;;
1282;SDS011;634;48.810;9.148;2022-07-19T13:50:50;2.80;;;2.40;;
1282;SDS011;634;48.810;9.148;2022-07-19T13:53:19;2.77;;;2.53;;
1282;SDS011;634;48.810;9.148;2022-07-19T13:55:49;6.97;;;3.37;;
1282;SDS011;634;48.810;9.148;2022-07-19T13:58:18;5.47;;;2.70;;
1282;SDS011;634;48.810;9.148;2022-07-19T14:00:50;5.30;;;2.70;;
1282;SDS011;634;48.810;9.148;2022-07-19T14:03:19;4.90;;;3.00;;
1282;SDS011;634;48.810;9.148;2022-07-19T14:05:52;6.13;;;2.80;;
1282;SDS011;634;48.810;9.148;2022-07-19T14:08:21;4.10;;;3.00;;
1282;SDS011;634;48.810;9.148;2022-07-19T14:10:53;8.43;;;2.90;;
1282;SDS011;634;48.810;9.148;2022-07-19T14:13:25;4.10;;;2.43;;
1282;SDS011;634;48.810;9.148;2022-07-19T14:15:57;4.27;;;3.10;;
1282;SDS011;634;48.810;9.148;2022-07-19T14:18:26;3.23;;;2.27;;
1282;SDS011;634;48.810;9.148;2022-07-19T14:20:59;3.60;;;2.97;;
1282;SDS011;634;48.810;9.148;2022-07-19T14:23:29;4.93;;;3.00;;
1282;SDS011;634;48.810;9.148;2022-07-19T14:26:01;4.40;;;2.80;;
1282;SDS011;634;48.810;9.148;2022-07-19T14:28:35;6.77;;;3.10;;
1282;SDS011;634;48.810;9.148;2022-07-19T14:31:05;3.70;;;2.90;;
1282;SDS011;634;48.810;9.148;2022-07-19T14:33:44;3.90;;;3.00;;
1282;SDS011;634;48.810;9.148;2022-07-19T14:36:16;4.90;;;2.90;;
1282;SDS011;634;48.810;9.148;2022-07-19T14:38:48;3.70;;;2.93;;
1282;SDS011;634;48.810;9.148;2022-07-19T14:41:18;3.63;;;2.80;;
1282;SDS011;634;48.810;9.148;2022-07-19T14:43:47;4.20;;;3.43;;
1282;SDS011;634;48.810;9.148;2022-07-19T14:46:17;5.23;;;3.10;;
1282;SDS011;634;48.810;9.148;2022-07-19T14:48:46;4.53;;;2.80;;
1282;SDS011;634;48.810;9.148;2022-07-19T14:51:20;5.67;;;3.70;;
1282;SDS011;634;48.810;9.148;2022-07-19T14:53:50;3.30;;;2.60;;
1282;SDS011;634;48.810;9.148;2022-07-19T14:56:19;4.43;;;2.83;;
1282;SDS011;634;48.810;9.148;2022-07-19T14:58:49;4.20;;;2.73;;
1282;SDS011;634;48.810;9.148;2022-07-19T15:01:21;4.50;;;2.73;;
1282;SDS011;634;48.810;9.148;2022-07-19T15:03:50;4.93;;;3.10;;
1282;SDS011;634;48.810;9.148;2022-07-19T15:06:25;3.07;;;2.67;;
1282;SDS011;634;48.810;9.148;2022-07-19T15:08:55;4.27;;;3.30;;
1282;SDS011;634;48.810;9.148;2022-07-19T15:11:26;5.40;;;3.10;;
1282;SDS011;634;48.810;9.148;2022-07-19T15:14:00;5.00;;;2.83;;
1282;SDS011;634;48.810;9.148;2022-07-19T15:16:30;3.73;;;3.20;;
1282;SDS011;634;48.810;9.148;2022-07-19T15:19:00;5.40;;;3.00;;
1282;SDS011;634;48.810;9.148;2022-07-19T15:21:32;3.83;;;3.43;;
1282;SDS011;634;48.810;9.148;2022-07-19T15:24:04;4.63;;;2.73;;
1282;SDS011;634;48.810;9.148;2022-07-19T15:26:33;4.80;;;3.10;;
1282;SDS011;634;48.810;9.148;2022-07-19T15:29:05;3.67;;;2.80;;
1282;SDS011;634;48.810;9.148;2022-07-19T15:31:35;2.63;;;2.43;;
1282;SDS011;634;48.810;9.148;2022-07-19T15:34:04;3.20;;;2.70;;
1282;SDS011;634;48.810;9.148;2022-07-19T15:36:36;3.97;;;2.73;;
1282;SDS011;634;48.810;9.148;2022-07-19T15:39:08;4.03;;;2.43;;
1282;SDS011;634;48.810;9.148;2022-07-19T15:41:38;5.00;;;3.07;;
1282;SDS011;634;48.810;9.148;2022-07-19T15:44:10;3.80;;;2.90;;
1282;SDS011;634;48.810;9.148;2022-07-19T15:46:40;4.10;;;2.87;;
1282;SDS011;634;48.810;9.148;2022-07-19T15:49:09;3.97;;;2.70;;
1282;SDS011;634;48.810;9.148;2022-07-19T15:51:41;6.63;;;2.87;;
1282;SDS011;634;48.810;9.148;2022-07-19T15:54:13;4.77;;;3.33;;
1282;SDS011;634;48.810;9.148;2022-07-19T15:56:42;3.90;;;2.50;;
1282;SDS011;634;48.810;9.148;2022-07-19T15:59:14;6.17;;;3.63;;
1282;SDS011;634;48.810;9.148;2022-07-19T16:01:46;4.53;;;3.00;;
1282;SDS011;634;48.810;9.148;2022-07-19T16:04:16;6.33;;;3.43;;